sensor_id;sensor_type;location;lat;lon;timestamp;P1;durP1;ratioP1;P2;durP2;ratioP2
69822;SDS011;57119;52.516;13.508;2023-02-11T00:01:40;37.90;;;15.03;;
69822;SDS011;57119;52.516;13.508;2023-02-11T00:04:05;41.57;;;15.60;;
69822;SDS011;57119;52.516;13.508;2023-02-11T00:06:31;41.10;;;15.48;;
69822;SDS011;57119;52.516;13.508;2023-02-11T00:08:58;39.45;;;16.45;;
69822;SDS011;57119;52.516;13.508;2023-02-11T00:11:25;39.43;;;15.67;;
69822;SDS011;57119;52.516;13.508;2023-02-11T00:13:54;36.65;;;14.57;;
69822;SDS011;57119;52.516;13.508;2023-02-11T00:16:20;36.55;;;14.95;;
69822;SDS011;57119;52.516;13.508;2023-02-11T00:18:45;35.43;;;13.70;;
69822;SDS011;57119;52.516;13.508;2023-02-11T00:21:19;43.80;;;15.32;;
69822;SDS011;57119;52.516;13.508;2023-02-11T00:23:47;41.00;;;16.00;;
69822;SDS011;57119;52.516;13.508;2023-02-11T00:26:16;39.08;;;14.10;;
69822;SDS011;57119;52.516;13.508;2023-02-11T00:28:47;40.53;;;16.27;;
69822;SDS011;57119;52.516;13.508;2023-02-11T00:31:13;41.63;;;16.67;;
69822;SDS011;57119;52.516;13.508;2023-02-11T00:33:40;41.50;;;17.63;;
69822;SDS011;57119;52.516;13.508;2023-02-11T00:36:06;42.70;;;16.58;;
69822;SDS011;57119;52.516;13.508;2023-02-11T00:38:34;42.30;;;16.67;;
69822;SDS011;57119;52.516;13.508;2023-02-11T00:40:59;45.73;;;16.37;;
69822;SDS011;57119;52.516;13.508;2023-02-11T00:43:25;46.53;;;17.47;;
69822;SDS011;57119;52.516;13.508;2023-02-11T00:45:50;38.07;;;16.13;;
69822;SDS011;57119;52.516;13.508;2023-02-11T00:48:15;40.30;;;15.70;;
69822;SDS011;57119;52.516;13.508;2023-02-11T00:50:41;34.47;;;13.90;;
69822;SDS011;57119;52.516;13.508;2023-02-11T00:53:06;39.33;;;15.80;;
69822;SDS011;57119;52.516;13.508;2023-02-11T00:55:32;40.57;;;16.50;;
69822;SDS011;57119;52.516;13.508;2023-02-11T00:57:57;39.20;;;16.15;;
69822;SDS011;57119;52.516;13.508;2023-02-11T01:00:24;35.58;;;13.73;;
69822;SDS011;57119;52.516;13.508;2023-02-11T01:02:49;41.45;;;17.10;;
69822;SDS011;57119;52.516;13.508;2023-02-11T01:05:15;39.87;;;15.77;;
69822;SDS011;57119;52.516;13.508;2023-02-11T01:07:40;41.35;;;16.05;;
69822;SDS011;57119;52.516;13.508;2023-02-11T01:10:06;36.10;;;16.30;;
69822;SDS011;57119;52.516;13.508;2023-02-11T01:12:31;42.50;;;16.80;;
69822;SDS011;57119;52.516;13.508;2023-02-11T01:14:57;35.10;;;15.40;;
69822;SDS011;57119;52.516;13.508;2023-02-11T01:17:22;36.97;;;16.73;;
69822;SDS011;57119;52.516;13.508;2023-02-11T01:19:48;38.63;;;15.27;;
69822;SDS011;57119;52.516;13.508;2023-02-11T01:22:13;47.87;;;16.97;;
69822;SDS011;57119;52.516;13.508;2023-02-11T01:24:39;39.07;;;15.57;;
69822;SDS011;57119;52.516;13.508;2023-02-11T01:27:04;42.08;;;16.17;;
69822;SDS011;57119;52.516;13.508;2023-02-11T01:29:29;37.92;;;14.70;;
69822;SDS011;57119;52.516;13.508;2023-02-11T01:31:55;40.43;;;15.13;;
69822;SDS011;57119;52.516;13.508;2023-02-11T01:34:20;36.47;;;15.20;;
69822;SDS011;57119;52.516;13.508;2023-02-11T01:36:45;37.10;;;15.10;;
69822;SDS011;57119;52.516;13.508;2023-02-11T01:39:11;43.20;;;16.23;;
69822;SDS011;57119;52.516;13.508;2023-02-11T01:41:36;40.03;;;15.10;;
69822;SDS011;57119;52.516;13.508;2023-02-11T01:47:06;41.27;;;16.10;;
69822;SDS011;57119;52.516;13.508;2023-02-11T01:49:35;40.95;;;15.77;;
69822;SDS011;57119;52.516;13.508;2023-02-11T01:52:08;35.15;;;15.07;;
69822;SDS011;57119;52.516;13.508;2023-02-11T01:54:35;41.35;;;15.48;;
69822;SDS011;57119;52.516;13.508;2023-02-11T01:57:24;35.60;;;15.50;;
69822;SDS011;57119;52.516;13.508;2023-02-11T02:05:07;36.95;;;14.82;;
69822;SDS011;57119;52.516;13.508;2023-02-11T02:07:42;45.72;;;17.40;;
69822;SDS011;57119;52.516;13.508;2023-02-11T02:10:14;36.43;;;14.40;;
69822;SDS011;57119;52.516;13.508;2023-02-11T02:12:42;38.22;;;14.18;;
69822;SDS011;57119;52.516;13.508;2023-02-11T02:15:18;37.70;;;14.57;;
69822;SDS011;57119;52.516;13.508;2023-02-11T02:17:56;35.60;;;15.38;;
69822;SDS011;57119;52.516;13.508;2023-02-11T02:23:13;36.35;;;14.73;;
69822;SDS011;57119;52.516;13.508;2023-02-11T02:26:13;37.93;;;15.70;;
69822;SDS011;57119;52.516;13.508;2023-02-11T02:29:10;36.60;;;14.30;;
69822;SDS011;57119;52.516;13.508;2023-02-11T02:34:21;38.78;;;14.57;;
69822;SDS011;57119;52.516;13.508;2023-02-11T02:36:54;30.20;;;13.73;;
69822;SDS011;57119;52.516;13.508;2023-02-11T02:39:32;36.73;;;15.10;;
69822;SDS011;57119;52.516;13.508;2023-02-11T02:42:00;35.83;;;15.25;;
69822;SDS011;57119;52.516;13.508;2023-02-11T02:44:26;36.72;;;15.25;;
69822;SDS011;57119;52.516;13.508;2023-02-11T02:46:53;39.42;;;16.33;;
69822;SDS011;57119;52.516;13.508;2023-02-11T02:49:18;42.50;;;15.73;;
69822;SDS011;57119;52.516;13.508;2023-02-11T03:08:13;38.40;;;16.10;;
69822;SDS011;57119;52.516;13.508;2023-02-11T03:10:35;41.35;;;16.73;;
69822;SDS011;57119;52.516;13.508;2023-02-11T03:13:04;37.08;;;16.05;;
69822;SDS011;57119;52.516;13.508;2023-02-11T03:15:33;39.28;;;16.55;;
69822;SDS011;57119;52.516;13.508;2023-02-11T03:18:02;41.73;;;17.00;;
69822;SDS011;57119;52.516;13.508;2023-02-11T03:20:31;40.58;;;17.83;;
69822;SDS011;57119;52.516;13.508;2023-02-11T03:23:02;38.70;;;16.70;;
69822;SDS011;57119;52.516;13.508;2023-02-11T03:25:33;37.08;;;17.15;;
69822;SDS011;57119;52.516;13.508;2023-02-11T03:31:05;41.30;;;18.17;;
69822;SDS011;57119;52.516;13.508;2023-02-11T03:39:23;37.85;;;16.80;;
69822;SDS011;57119;52.516;13.508;2023-02-11T03:41:53;39.03;;;16.10;;
69822;SDS011;57119;52.516;13.508;2023-02-11T03:44:22;40.77;;;18.60;;
69822;SDS011;57119;52.516;13.508;2023-02-11T03:46:51;36.53;;;16.63;;
69822;SDS011;57119;52.516;13.508;2023-02-11T03:49:19;41.42;;;16.77;;
69822;SDS011;57119;52.516;13.508;2023-02-11T03:51:47;38.25;;;15.38;;
69822;SDS011;57119;52.516;13.508;2023-02-11T03:54:18;41.97;;;17.50;;
69822;SDS011;57119;52.516;13.508;2023-02-11T03:56:50;38.80;;;16.87;;
69822;SDS011;57119;52.516;13.508;2023-02-11T03:59:17;40.97;;;19.50;;
69822;SDS011;57119;52.516;13.508;2023-02-11T04:01:43;43.63;;;18.65;;
69822;SDS011;57119;52.516;13.508;2023-02-11T04:04:09;42.60;;;18.30;;
69822;SDS011;57119;52.516;13.508;2023-02-11T04:06:34;41.60;;;18.07;;
69822;SDS011;57119;52.516;13.508;2023-02-11T04:09:00;41.30;;;18.52;;
69822;SDS011;57119;52.516;13.508;2023-02-11T04:11:26;44.38;;;19.35;;
69822;SDS011;57119;52.516;13.508;2023-02-11T04:13:51;44.83;;;19.47;;
69822;SDS011;57119;52.516;13.508;2023-02-11T04:16:17;38.53;;;17.60;;
69822;SDS011;57119;52.516;13.508;2023-02-11T04:18:42;40.42;;;18.33;;
69822;SDS011;57119;52.516;13.508;2023-02-11T04:21:08;40.60;;;17.67;;
69822;SDS011;57119;52.516;13.508;2023-02-11T04:23:33;40.27;;;17.87;;
69822;SDS011;57119;52.516;13.508;2023-02-11T04:25:59;42.55;;;18.65;;
69822;SDS011;57119;52.516;13.508;2023-02-11T04:28:24;40.23;;;18.43;;
69822;SDS011;57119;52.516;13.508;2023-02-11T04:30:53;42.75;;;18.67;;
69822;SDS011;57119;52.516;13.508;2023-02-11T04:33:19;41.63;;;17.43;;
69822;SDS011;57119;52.516;13.508;2023-02-11T04:35:44;47.27;;;19.30;;
69822;SDS011;57119;52.516;13.508;2023-02-11T04:38:09;45.35;;;19.48;;
69822;SDS011;57119;52.516;13.508;2023-02-11T04:40:35;45.90;;;19.63;;
69822;SDS011;57119;52.516;13.508;2023-02-11T04:43:00;48.30;;;19.50;;
69822;SDS011;57119;52.516;13.508;2023-02-11T04:45:26;43.97;;;20.70;;
69822;SDS011;57119;52.516;13.508;2023-02-11T04:47:51;47.17;;;19.50;;
69822;SDS011;57119;52.516;13.508;2023-02-11T04:50:16;46.70;;;19.33;;
69822;SDS011;57119;52.516;13.508;2023-02-11T04:52:42;45.78;;;19.27;;
69822;SDS011;57119;52.516;13.508;2023-02-11T04:55:07;50.80;;;20.17;;
69822;SDS011;57119;52.516;13.508;2023-02-11T04:57:33;52.07;;;20.30;;
69822;SDS011;57119;52.516;13.508;2023-02-11T04:59:58;43.63;;;19.53;;
69822;SDS011;57119;52.516;13.508;2023-02-11T05:02:23;44.23;;;19.97;;
69822;SDS011;57119;52.516;13.508;2023-02-11T05:04:49;51.00;;;20.70;;
69822;SDS011;57119;52.516;13.508;2023-02-11T05:07:14;46.77;;;20.10;;
69822;SDS011;57119;52.516;13.508;2023-02-11T05:09:39;52.58;;;21.02;;
69822;SDS011;57119;52.516;13.508;2023-02-11T05:12:05;50.83;;;21.30;;
69822;SDS011;57119;52.516;13.508;2023-02-11T05:14:30;45.87;;;19.23;;
69822;SDS011;57119;52.516;13.508;2023-02-11T05:16:56;52.78;;;22.60;;
69822;SDS011;57119;52.516;13.508;2023-02-11T05:19:21;46.13;;;20.73;;
69822;SDS011;57119;52.516;13.508;2023-02-11T05:21:47;48.23;;;16.40;;
69822;SDS011;57119;52.516;13.508;2023-02-11T05:24:12;47.87;;;20.20;;
69822;SDS011;57119;52.516;13.508;2023-02-11T05:26:37;48.63;;;19.80;;
69822;SDS011;57119;52.516;13.508;2023-02-11T05:29:03;52.47;;;21.27;;
69822;SDS011;57119;52.516;13.508;2023-02-11T05:31:28;45.17;;;18.77;;
69822;SDS011;57119;52.516;13.508;2023-02-11T05:33:53;48.93;;;20.30;;
69822;SDS011;57119;52.516;13.508;2023-02-11T05:36:19;48.37;;;21.73;;
69822;SDS011;57119;52.516;13.508;2023-02-11T05:38:44;57.07;;;22.67;;
69822;SDS011;57119;52.516;13.508;2023-02-11T05:41:10;47.93;;;21.57;;
69822;SDS011;57119;52.516;13.508;2023-02-11T05:43:36;50.35;;;20.95;;
69822;SDS011;57119;52.516;13.508;2023-02-11T05:46:02;55.87;;;22.53;;
69822;SDS011;57119;52.516;13.508;2023-02-11T05:48:28;51.65;;;21.92;;
69822;SDS011;57119;52.516;13.508;2023-02-11T05:50:54;47.50;;;22.10;;
69822;SDS011;57119;52.516;13.508;2023-02-11T05:53:20;48.37;;;21.10;;
69822;SDS011;57119;52.516;13.508;2023-02-11T05:55:45;35.35;;;16.73;;
69822;SDS011;57119;52.516;13.508;2023-02-11T05:58:11;67.00;;;23.00;;
69822;SDS011;57119;52.516;13.508;2023-02-11T06:00:36;52.13;;;22.07;;
69822;SDS011;57119;52.516;13.508;2023-02-11T06:03:02;54.88;;;22.00;;
69822;SDS011;57119;52.516;13.508;2023-02-11T06:05:28;52.17;;;21.30;;
69822;SDS011;57119;52.516;13.508;2023-02-11T06:07:54;51.10;;;20.67;;
69822;SDS011;57119;52.516;13.508;2023-02-11T06:10:19;53.70;;;20.87;;
69822;SDS011;57119;52.516;13.508;2023-02-11T06:12:45;59.58;;;22.67;;
69822;SDS011;57119;52.516;13.508;2023-02-11T06:15:10;55.50;;;22.87;;
69822;SDS011;57119;52.516;13.508;2023-02-11T06:17:36;53.33;;;20.43;;
69822;SDS011;57119;52.516;13.508;2023-02-11T06:20:02;55.83;;;22.43;;
69822;SDS011;57119;52.516;13.508;2023-02-11T06:22:29;46.22;;;19.98;;
69822;SDS011;57119;52.516;13.508;2023-02-11T06:24:55;60.33;;;22.63;;
69822;SDS011;57119;52.516;13.508;2023-02-11T06:27:20;49.55;;;20.13;;
69822;SDS011;57119;52.516;13.508;2023-02-11T06:29:46;51.10;;;21.00;;
69822;SDS011;57119;52.516;13.508;2023-02-11T06:32:11;58.17;;;22.92;;
69822;SDS011;57119;52.516;13.508;2023-02-11T06:34:37;60.67;;;22.63;;
69822;SDS011;57119;52.516;13.508;2023-02-11T06:37:03;54.17;;;22.20;;
69822;SDS011;57119;52.516;13.508;2023-02-11T06:39:28;60.10;;;24.20;;
69822;SDS011;57119;52.516;13.508;2023-02-11T06:41:54;57.13;;;23.23;;
69822;SDS011;57119;52.516;13.508;2023-02-11T06:44:19;59.73;;;24.43;;
69822;SDS011;57119;52.516;13.508;2023-02-11T06:46:45;52.63;;;22.02;;
69822;SDS011;57119;52.516;13.508;2023-02-11T06:49:10;60.80;;;24.93;;
69822;SDS011;57119;52.516;13.508;2023-02-11T06:51:36;52.67;;;22.30;;
69822;SDS011;57119;52.516;13.508;2023-02-11T06:54:01;54.53;;;21.93;;
69822;SDS011;57119;52.516;13.508;2023-02-11T06:56:28;58.17;;;24.20;;
69822;SDS011;57119;52.516;13.508;2023-02-11T06:58:54;63.75;;;25.55;;
69822;SDS011;57119;52.516;13.508;2023-02-11T07:01:20;58.55;;;25.23;;
69822;SDS011;57119;52.516;13.508;2023-02-11T07:03:46;54.63;;;22.20;;
69822;SDS011;57119;52.516;13.508;2023-02-11T07:06:14;57.50;;;24.20;;
69822;SDS011;57119;52.516;13.508;2023-02-11T07:08:41;63.47;;;24.80;;
69822;SDS011;57119;52.516;13.508;2023-02-11T07:11:23;41.95;;;17.98;;
69822;SDS011;57119;52.516;13.508;2023-02-11T07:13:51;62.75;;;24.23;;
69822;SDS011;57119;52.516;13.508;2023-02-11T07:16:18;58.80;;;24.70;;
69822;SDS011;57119;52.516;13.508;2023-02-11T07:18:44;62.10;;;25.43;;
69822;SDS011;57119;52.516;13.508;2023-02-11T07:21:13;59.58;;;23.52;;
69822;SDS011;57119;52.516;13.508;2023-02-11T07:23:41;57.42;;;22.38;;
69822;SDS011;57119;52.516;13.508;2023-02-11T07:26:08;56.50;;;25.33;;
69822;SDS011;57119;52.516;13.508;2023-02-11T07:28:36;57.22;;;24.80;;
69822;SDS011;57119;52.516;13.508;2023-02-11T07:31:06;62.47;;;25.23;;
69822;SDS011;57119;52.516;13.508;2023-02-11T07:34:04;58.83;;;24.45;;
69822;SDS011;57119;52.516;13.508;2023-02-11T07:36:29;52.77;;;23.30;;
69822;SDS011;57119;52.516;13.508;2023-02-11T07:38:58;57.03;;;23.50;;
69822;SDS011;57119;52.516;13.508;2023-02-11T07:41:24;60.03;;;22.97;;
69822;SDS011;57119;52.516;13.508;2023-02-11T07:43:50;58.15;;;24.88;;
69822;SDS011;57119;52.516;13.508;2023-02-11T07:46:16;62.53;;;24.13;;
69822;SDS011;57119;52.516;13.508;2023-02-11T07:48:45;62.03;;;25.60;;
69822;SDS011;57119;52.516;13.508;2023-02-11T07:51:23;52.53;;;23.15;;
69822;SDS011;57119;52.516;13.508;2023-02-11T07:53:50;67.00;;;24.08;;
69822;SDS011;57119;52.516;13.508;2023-02-11T07:56:16;60.03;;;26.60;;
69822;SDS011;57119;52.516;13.508;2023-02-11T07:58:43;47.33;;;19.63;;
69822;SDS011;57119;52.516;13.508;2023-02-11T08:01:10;63.25;;;23.40;;
69822;SDS011;57119;52.516;13.508;2023-02-11T08:03:37;60.67;;;23.55;;
69822;SDS011;57119;52.516;13.508;2023-02-11T08:06:08;59.80;;;25.40;;
69822;SDS011;57119;52.516;13.508;2023-02-11T08:08:35;60.25;;;24.77;;
69822;SDS011;57119;52.516;13.508;2023-02-11T08:11:05;55.08;;;23.08;;
69822;SDS011;57119;52.516;13.508;2023-02-11T08:13:34;55.47;;;21.65;;
69822;SDS011;57119;52.516;13.508;2023-02-11T08:16:00;59.13;;;24.27;;
69822;SDS011;57119;52.516;13.508;2023-02-11T08:18:26;60.55;;;24.50;;
69822;SDS011;57119;52.516;13.508;2023-02-11T08:20:51;59.27;;;22.10;;
69822;SDS011;57119;52.516;13.508;2023-02-11T08:23:17;53.88;;;22.02;;
69822;SDS011;57119;52.516;13.508;2023-02-11T08:25:42;60.37;;;23.03;;
69822;SDS011;57119;52.516;13.508;2023-02-11T08:28:11;59.67;;;22.10;;
69822;SDS011;57119;52.516;13.508;2023-02-11T08:30:36;46.97;;;20.45;;
69822;SDS011;57119;52.516;13.508;2023-02-11T08:33:02;58.20;;;23.53;;
69822;SDS011;57119;52.516;13.508;2023-02-11T08:35:27;50.83;;;22.58;;
69822;SDS011;57119;52.516;13.508;2023-02-11T08:37:53;56.47;;;21.87;;
69822;SDS011;57119;52.516;13.508;2023-02-11T08:40:18;54.57;;;22.30;;
69822;SDS011;57119;52.516;13.508;2023-02-11T08:42:44;64.45;;;23.50;;
69822;SDS011;57119;52.516;13.508;2023-02-11T08:45:10;53.60;;;21.58;;
69822;SDS011;57119;52.516;13.508;2023-02-11T08:47:36;52.97;;;22.17;;
69822;SDS011;57119;52.516;13.508;2023-02-11T08:50:03;53.65;;;22.80;;
69822;SDS011;57119;52.516;13.508;2023-02-11T08:52:29;61.45;;;23.30;;
69822;SDS011;57119;52.516;13.508;2023-02-11T08:54:54;57.20;;;22.97;;
69822;SDS011;57119;52.516;13.508;2023-02-11T08:57:20;56.38;;;23.08;;
69822;SDS011;57119;52.516;13.508;2023-02-11T08:59:45;63.77;;;23.43;;
69822;SDS011;57119;52.516;13.508;2023-02-11T09:02:11;56.93;;;22.80;;
69822;SDS011;57119;52.516;13.508;2023-02-11T09:04:37;56.78;;;21.55;;
69822;SDS011;57119;52.516;13.508;2023-02-11T09:07:02;57.27;;;21.73;;
69822;SDS011;57119;52.516;13.508;2023-02-11T09:09:28;49.80;;;21.08;;
69822;SDS011;57119;52.516;13.508;2023-02-11T09:11:54;52.00;;;22.27;;
69822;SDS011;57119;52.516;13.508;2023-02-11T09:14:25;55.77;;;24.77;;
69822;SDS011;57119;52.516;13.508;2023-02-11T09:16:51;51.22;;;20.15;;
69822;SDS011;57119;52.516;13.508;2023-02-11T09:19:17;50.88;;;22.40;;
69822;SDS011;57119;52.516;13.508;2023-02-11T09:21:43;54.75;;;22.52;;
69822;SDS011;57119;52.516;13.508;2023-02-11T09:24:09;45.90;;;20.23;;
69822;SDS011;57119;52.516;13.508;2023-02-11T09:26:35;57.60;;;23.48;;
69822;SDS011;57119;52.516;13.508;2023-02-11T09:29:03;47.90;;;21.65;;
69822;SDS011;57119;52.516;13.508;2023-02-11T09:31:29;51.08;;;21.10;;
69822;SDS011;57119;52.516;13.508;2023-02-11T09:34:00;48.27;;;21.73;;
69822;SDS011;57119;52.516;13.508;2023-02-11T09:36:35;51.17;;;20.35;;
69822;SDS011;57119;52.516;13.508;2023-02-11T09:39:03;58.08;;;21.30;;
69822;SDS011;57119;52.516;13.508;2023-02-11T09:44:17;50.67;;;22.70;;
69822;SDS011;57119;52.516;13.508;2023-02-11T09:46:46;51.83;;;22.13;;
69822;SDS011;57119;52.516;13.508;2023-02-11T09:49:20;53.53;;;22.58;;
69822;SDS011;57119;52.516;13.508;2023-02-11T09:51:52;50.90;;;22.17;;
69822;SDS011;57119;52.516;13.508;2023-02-11T09:54:27;56.17;;;21.50;;
69822;SDS011;57119;52.516;13.508;2023-02-11T09:56:55;52.00;;;22.48;;
69822;SDS011;57119;52.516;13.508;2023-02-11T09:59:21;49.10;;;22.63;;
69822;SDS011;57119;52.516;13.508;2023-02-11T10:01:49;51.17;;;20.27;;
69822;SDS011;57119;52.516;13.508;2023-02-11T10:04:30;54.20;;;20.50;;
69822;SDS011;57119;52.516;13.508;2023-02-11T10:07:28;37.25;;;15.98;;
69822;SDS011;57119;52.516;13.508;2023-02-11T10:22:11;44.22;;;19.65;;
69822;SDS011;57119;52.516;13.508;2023-02-11T10:24:47;50.35;;;20.15;;
69822;SDS011;57119;52.516;13.508;2023-02-11T10:27:19;53.22;;;22.13;;
69822;SDS011;57119;52.516;13.508;2023-02-11T10:29:52;49.40;;;18.60;;
69822;SDS011;57119;52.516;13.508;2023-02-11T10:35:11;46.22;;;20.15;;
69822;SDS011;57119;52.516;13.508;2023-02-11T10:37:39;50.40;;;19.02;;
69822;SDS011;57119;52.516;13.508;2023-02-11T10:40:05;54.03;;;21.23;;
69822;SDS011;57119;52.516;13.508;2023-02-11T10:42:36;44.35;;;15.77;;
69822;SDS011;57119;52.516;13.508;2023-02-11T10:45:03;48.75;;;19.27;;
69822;SDS011;57119;52.516;13.508;2023-02-11T10:47:33;48.65;;;18.42;;
69822;SDS011;57119;52.516;13.508;2023-02-11T10:50:16;50.63;;;20.30;;
69822;SDS011;57119;52.516;13.508;2023-02-11T10:52:49;51.00;;;20.75;;
69822;SDS011;57119;52.516;13.508;2023-02-11T10:55:18;46.67;;;20.03;;
69822;SDS011;57119;52.516;13.508;2023-02-11T11:03:01;52.15;;;20.30;;
69822;SDS011;57119;52.516;13.508;2023-02-11T11:05:30;41.80;;;18.20;;
69822;SDS011;57119;52.516;13.508;2023-02-11T11:07:59;44.10;;;17.90;;
69822;SDS011;57119;52.516;13.508;2023-02-11T11:10:29;57.47;;;21.50;;
69822;SDS011;57119;52.516;13.508;2023-02-11T11:13:00;47.28;;;18.13;;
69822;SDS011;57119;52.516;13.508;2023-02-11T11:15:26;49.43;;;17.93;;
69822;SDS011;57119;52.516;13.508;2023-02-11T11:18:11;44.22;;;18.58;;
69822;SDS011;57119;52.516;13.508;2023-02-11T11:20:43;47.08;;;17.55;;
69822;SDS011;57119;52.516;13.508;2023-02-11T11:23:39;48.10;;;18.38;;
69822;SDS011;57119;52.516;13.508;2023-02-11T11:26:47;45.40;;;17.60;;
69822;SDS011;57119;52.516;13.508;2023-02-11T11:29:16;41.53;;;18.10;;
69822;SDS011;57119;52.516;13.508;2023-02-11T11:34:22;45.30;;;18.95;;
69822;SDS011;57119;52.516;13.508;2023-02-11T11:36:52;41.95;;;16.90;;
69822;SDS011;57119;52.516;13.508;2023-02-11T11:39:20;45.07;;;19.07;;
69822;SDS011;57119;52.516;13.508;2023-02-11T11:41:53;44.90;;;18.83;;
69822;SDS011;57119;52.516;13.508;2023-02-11T11:47:16;41.30;;;17.63;;
69822;SDS011;57119;52.516;13.508;2023-02-11T11:49:54;37.25;;;16.20;;
69822;SDS011;57119;52.516;13.508;2023-02-11T11:52:49;40.80;;;17.10;;
69822;SDS011;57119;52.516;13.508;2023-02-11T11:55:21;43.63;;;18.77;;
69822;SDS011;57119;52.516;13.508;2023-02-11T11:57:50;36.80;;;14.70;;
69822;SDS011;57119;52.516;13.508;2023-02-11T12:06:25;41.57;;;16.47;;
69822;SDS011;57119;52.516;13.508;2023-02-11T12:22:18;31.58;;;14.13;;
69822;SDS011;57119;52.516;13.508;2023-02-11T12:27:55;34.58;;;15.30;;
69822;SDS011;57119;52.516;13.508;2023-02-11T12:30:33;33.78;;;13.90;;
69822;SDS011;57119;52.516;13.508;2023-02-11T12:43:34;54.35;;;27.10;;
69822;SDS011;57119;52.516;13.508;2023-02-11T12:52:08;29.42;;;13.57;;
69822;SDS011;57119;52.516;13.508;2023-02-11T12:57:16;28.70;;;14.20;;
69822;SDS011;57119;52.516;13.508;2023-02-11T13:04:58;36.00;;;13.77;;
69822;SDS011;57119;52.516;13.508;2023-02-11T13:07:33;28.73;;;13.35;;
69822;SDS011;57119;52.516;13.508;2023-02-11T13:12:54;33.10;;;15.48;;
69822;SDS011;57119;52.516;13.508;2023-02-11T13:15:40;34.58;;;16.02;;
69822;SDS011;57119;52.516;13.508;2023-02-11T13:20:50;32.15;;;14.45;;
69822;SDS011;57119;52.516;13.508;2023-02-11T13:26:01;31.05;;;14.20;;
69822;SDS011;57119;52.516;13.508;2023-02-11T13:28:44;29.33;;;13.23;;
69822;SDS011;57119;52.516;13.508;2023-02-11T13:31:15;24.65;;;12.55;;
69822;SDS011;57119;52.516;13.508;2023-02-11T13:33:43;26.45;;;12.95;;
69822;SDS011;57119;52.516;13.508;2023-02-11T13:36:11;30.50;;;13.43;;
69822;SDS011;57119;52.516;13.508;2023-02-11T13:38:38;29.65;;;11.85;;
69822;SDS011;57119;52.516;13.508;2023-02-11T13:41:15;32.20;;;14.13;;
69822;SDS011;57119;52.516;13.508;2023-02-11T13:46:57;26.73;;;13.13;;
69822;SDS011;57119;52.516;13.508;2023-02-11T13:49:29;28.50;;;13.85;;
69822;SDS011;57119;52.516;13.508;2023-02-11T13:52:05;27.98;;;13.45;;
69822;SDS011;57119;52.516;13.508;2023-02-11T13:57:38;31.60;;;13.10;;
69822;SDS011;57119;52.516;13.508;2023-02-11T14:15:28;27.27;;;12.82;;
69822;SDS011;57119;52.516;13.508;2023-02-11T14:17:49;27.50;;;12.13;;
69822;SDS011;57119;52.516;13.508;2023-02-11T14:20:35;25.27;;;11.43;;
69822;SDS011;57119;52.516;13.508;2023-02-11T14:23:05;26.50;;;12.10;;
69822;SDS011;57119;52.516;13.508;2023-02-11T14:25:31;24.98;;;10.77;;
69822;SDS011;57119;52.516;13.508;2023-02-11T14:28:18;24.40;;;11.50;;
69822;SDS011;57119;52.516;13.508;2023-02-11T14:31:03;24.15;;;10.40;;
69822;SDS011;57119;52.516;13.508;2023-02-11T14:38:57;23.03;;;10.90;;
69822;SDS011;57119;52.516;13.508;2023-02-11T14:41:34;19.80;;;9.38;;
69822;SDS011;57119;52.516;13.508;2023-02-11T14:44:05;22.45;;;10.45;;
69822;SDS011;57119;52.516;13.508;2023-02-11T14:46:42;32.30;;;15.30;;
69822;SDS011;57119;52.516;13.508;2023-02-11T14:49:11;24.65;;;11.07;;
69822;SDS011;57119;52.516;13.508;2023-02-11T14:51:45;19.43;;;10.20;;
69822;SDS011;57119;52.516;13.508;2023-02-11T14:54:13;23.40;;;10.95;;
69822;SDS011;57119;52.516;13.508;2023-02-11T14:56:41;20.48;;;9.98;;
69822;SDS011;57119;52.516;13.508;2023-02-11T14:59:14;21.90;;;10.15;;
69822;SDS011;57119;52.516;13.508;2023-02-11T15:01:43;28.38;;;11.07;;
69822;SDS011;57119;52.516;13.508;2023-02-11T15:04:25;19.63;;;8.80;;
69822;SDS011;57119;52.516;13.508;2023-02-11T15:07:05;18.70;;;10.15;;
69822;SDS011;57119;52.516;13.508;2023-02-11T15:09:33;20.80;;;9.38;;
69822;SDS011;57119;52.516;13.508;2023-02-11T15:12:04;17.23;;;8.95;;
69822;SDS011;57119;52.516;13.508;2023-02-11T15:14:37;18.85;;;9.93;;
69822;SDS011;57119;52.516;13.508;2023-02-11T15:17:05;17.53;;;8.83;;
69822;SDS011;57119;52.516;13.508;2023-02-11T15:19:37;20.77;;;9.65;;
69822;SDS011;57119;52.516;13.508;2023-02-11T15:22:27;18.48;;;9.27;;
69822;SDS011;57119;52.516;13.508;2023-02-11T15:27:41;18.60;;;8.90;;
69822;SDS011;57119;52.516;13.508;2023-02-11T15:32:45;21.23;;;9.85;;
69822;SDS011;57119;52.516;13.508;2023-02-11T15:35:11;17.83;;;8.95;;
69822;SDS011;57119;52.516;13.508;2023-02-11T15:37:38;20.73;;;8.18;;
69822;SDS011;57119;52.516;13.508;2023-02-11T15:40:11;20.70;;;8.25;;
69822;SDS011;57119;52.516;13.508;2023-02-11T15:42:51;18.27;;;7.93;;
69822;SDS011;57119;52.516;13.508;2023-02-11T15:45:25;15.13;;;7.28;;
69822;SDS011;57119;52.516;13.508;2023-02-11T15:47:56;13.52;;;5.95;;
69822;SDS011;57119;52.516;13.508;2023-02-11T15:50:30;18.13;;;7.93;;
69822;SDS011;57119;52.516;13.508;2023-02-11T15:52:59;17.23;;;8.00;;
69822;SDS011;57119;52.516;13.508;2023-02-11T15:55:26;17.83;;;7.63;;
69822;SDS011;57119;52.516;13.508;2023-02-11T15:57:57;17.65;;;7.13;;
69822;SDS011;57119;52.516;13.508;2023-02-11T16:00:33;16.98;;;7.47;;
69822;SDS011;57119;52.516;13.508;2023-02-11T16:03:20;18.65;;;7.72;;
69822;SDS011;57119;52.516;13.508;2023-02-11T16:05:47;19.27;;;8.43;;
69822;SDS011;57119;52.516;13.508;2023-02-11T16:08:20;15.23;;;7.50;;
69822;SDS011;57119;52.516;13.508;2023-02-11T16:10:58;15.38;;;7.35;;
69822;SDS011;57119;52.516;13.508;2023-02-11T16:13:32;14.07;;;6.53;;
69822;SDS011;57119;52.516;13.508;2023-02-11T16:16:18;16.10;;;7.18;;
69822;SDS011;57119;52.516;13.508;2023-02-11T16:18:51;16.45;;;7.22;;
69822;SDS011;57119;52.516;13.508;2023-02-11T16:21:20;15.40;;;6.22;;
69822;SDS011;57119;52.516;13.508;2023-02-11T16:23:53;14.68;;;6.60;;
69822;SDS011;57119;52.516;13.508;2023-02-11T16:26:37;15.00;;;6.80;;
69822;SDS011;57119;52.516;13.508;2023-02-11T16:31:45;14.75;;;6.57;;
69822;SDS011;57119;52.516;13.508;2023-02-11T16:34:12;12.63;;;6.20;;
69822;SDS011;57119;52.516;13.508;2023-02-11T16:36:40;16.33;;;6.55;;
69822;SDS011;57119;52.516;13.508;2023-02-11T16:39:06;17.53;;;6.33;;
69822;SDS011;57119;52.516;13.508;2023-02-11T16:41:32;14.23;;;6.57;;
69822;SDS011;57119;52.516;13.508;2023-02-11T16:43:57;14.73;;;6.70;;
69822;SDS011;57119;52.516;13.508;2023-02-11T16:46:22;24.57;;;11.60;;
69822;SDS011;57119;52.516;13.508;2023-02-11T16:48:48;14.48;;;7.28;;
69822;SDS011;57119;52.516;13.508;2023-02-11T16:51:13;14.37;;;6.03;;
69822;SDS011;57119;52.516;13.508;2023-02-11T16:53:39;13.93;;;7.00;;
69822;SDS011;57119;52.516;13.508;2023-02-11T16:56:04;15.77;;;7.37;;
69822;SDS011;57119;52.516;13.508;2023-02-11T16:58:30;16.65;;;6.55;;
69822;SDS011;57119;52.516;13.508;2023-02-11T17:00:55;14.07;;;6.70;;